Time;durP1;ratioP1;P1;durP2;ratioP2;P2;SDS_P1;SDS_P2;PMS_P1;PMS_P2;Temp;Humidity;BMP_temperature;BMP_pressure;BME280_temperature;BME280_humidity;BME280_pressure;Samples;Min_cycle;Max_cycle;Signal;HPM_P1;HPM_P2
2021/03/01 00:00:21;;;;;;;;;;;;;;;4.48;80.20;102740.62;1581594;87;20715;-79
2021/03/01 00:03:05;;;;;;;;;;;;;;;4.46;80.22;102743.53;1590842;89;20298;-78
2021/03/01 00:05:50;;;;;;;;;;;;;;;4.44;80.26;102746.42;1588093;86;20872;-78
2021/03/01 00:08:35;;;;;;;;;;;;;;;4.43;80.26;102748.52;1569243;89;20320;-78
2021/03/01 00:11:20;;;;;;;;;;;;;;;4.43;80.28;102750.20;1591568;88;20318;-77
2021/03/01 00:14:04;;;;;;;;;;;;;;;4.41;80.26;102759.09;1570603;89;20393;-78
2021/03/01 00:16:49;;;;;;;;;;;;;;;4.40;80.29;102765.44;1575382;89;20307;-78
2021/03/01 00:19:33;;;;;;;;;;;;;;;4.37;80.25;102765.30;1613087;87;20296;-78
2021/03/01 00:22:18;;;;;;;;;;;;;;;4.36;80.28;102776.36;1615831;88;20285;-78
2021/03/01 00:25:04;;;;;;;;;;;;;;;4.36;80.32;102768.67;1575556;89;20647;-78
2021/03/01 00:27:49;;;;;;;;;;;;;;;4.39;80.35;102772.65;1612637;88;20301;-78
2021/03/01 00:30:34;;;;;;;;;;;;;;;4.38;80.28;102771.77;1601117;88;20307;-78
2021/03/01 00:33:18;;;;;;;;;;;;;;;4.37;80.30;102769.14;1614732;88;20287;-78
2021/03/01 00:36:03;;;;;;;;;;;;;;;4.36;80.31;102759.30;1614297;88;20285;-78
2021/03/01 00:38:48;;;;;;;;;;;;;;;4.33;80.27;102751.48;1599472;88;20309;-78
2021/03/01 00:41:32;;;;;;;;;;;;;;;4.32;80.33;102756.14;1593101;88;20501;-79
2021/03/01 00:44:17;;;;;;;;;;;;;;;4.35;80.37;102757.55;1563222;90;20329;-79
2021/03/01 00:47:02;;;;;;;;;;;;;;;4.37;80.39;102748.25;1581220;88;20312;-79
2021/03/01 00:49:46;;;;;;;;;;;;;;;4.41;80.39;102754.38;1583379;88;20299;-79
2021/03/01 00:52:31;;;;;;;;;;;;;;;4.42;80.39;102746.77;1552451;90;20302;-79
2021/03/01 00:55:16;;;;;;;;;;;;;;;4.40;80.32;102739.42;1596142;88;21288;-79
2021/03/01 00:58:00;;;;;;;;;;;;;;;4.37;80.25;102740.97;1602071;88;20413;-79
2021/03/01 01:00:46;;;;;;;;;;;;;;;4.35;80.32;102737.06;1568841;89;20496;-78
2021/03/01 01:03:30;;;;;;;;;;;;;;;4.33;80.29;102736.13;1592134;88;20588;-78
2021/03/01 01:06:15;;;;;;;;;;;;;;;4.35;80.38;102735.78;1597443;88;20285;-78
2021/03/01 01:08:59;;;;;;;;;;;;;;;4.35;80.33;102733.22;1570457;90;20340;-78
2021/03/01 01:11:44;;;;;;;;;;;;;;;4.34;80.32;102736.59;1556697;90;20308;-78
2021/03/01 01:14:29;;;;;;;;;;;;;;;4.32;80.28;102742.05;1563096;90;20302;-78
2021/03/01 01:17:14;;;;;;;;;;;;;;;4.32;80.40;102727.97;1600519;88;20318;-78
2021/03/01 01:19:58;;;;;;;;;;;;;;;4.32;80.31;102730.52;1575052;89;20584;-78
2021/03/01 01:22:43;;;;;;;;;;;;;;;4.30;80.33;102730.86;1607364;88;20302;-79
2021/03/01 01:25:28;;;;;;;;;;;;;;;4.30;80.33;102733.02;1593759;87;20538;-79
2021/03/01 01:28:13;;;;;;;;;;;;;;;4.30;80.35;102733.42;1560706;90;20309;-79
2021/03/01 01:30:58;;;;;;;;;;;;;;;4.27;80.27;102732.01;1579785;88;20573;-79
2021/03/01 01:33:43;;;;;;;;;;;;;;;4.26;80.45;102733.69;1564925;89;20305;-78
2021/03/01 01:36:27;;;;;;;;;;;;;;;4.27;80.36;102728.17;1585538;87;20580;-78
2021/03/01 01:39:12;;;;;;;;;;;;;;;4.27;80.37;102729.05;1574520;87;20343;-79
2021/03/01 01:41:57;;;;;;;;;;;;;;;4.28;80.42;102735.05;1558655;90;20321;-78
2021/03/01 01:44:41;;;;;;;;;;;;;;;4.28;80.38;102727.36;1557998;90;20551;-79
2021/03/01 01:47:26;;;;;;;;;;;;;;;4.24;80.32;102730.59;1568801;90;20332;-79
2021/03/01 01:50:12;;;;;;;;;;;;;;;4.24;80.46;102725.47;1554961;90;20283;-79
2021/03/01 01:52:57;;;;;;;;;;;;;;;4.27;80.43;102724.33;1565936;88;20236;-79
2021/03/01 01:55:42;;;;;;;;;;;;;;;4.26;80.39;102720.89;1590253;90;20261;-79
2021/03/01 01:58:26;;;;;;;;;;;;;;;4.26;80.42;102726.02;1572616;89;20303;-78
2021/03/01 02:01:11;;;;;;;;;;;;;;;4.24;80.39;102732.75;1571167;90;20512;-78
2021/03/01 02:04:02;;;;;;;;;;;;;;;4.25;80.46;102733.22;1551482;89;21292;-78
2021/03/01 02:06:59;;;;;;;;;;;;;;;4.26;80.46;102731.13;1561422;90;20738;-78
2021/03/01 02:10:03;;;;;;;;;;;;;;;4.28;80.45;102730.80;1563152;90;20317;-78
2021/03/01 02:12:54;;;;;;;;;;;;;;;4.32;80.53;102733.09;1560835;88;20300;-78
2021/03/01 02:16:00;;;;;;;;;;;;;;;4.35;80.51;102731.94;1571048;89;20326;-78
2021/03/01 02:18:45;;;;;;;;;;;;;;;4.34;80.43;102730.19;1562999;90;20325;-78
2021/03/01 02:21:31;;;;;;;;;;;;;;;4.34;80.46;102732.75;1567216;90;20296;-78
2021/03/01 02:24:18;;;;;;;;;;;;;;;4.33;80.46;102729.31;1572173;89;20296;-78
2021/03/01 02:27:02;;;;;;;;;;;;;;;4.34;80.50;102725.06;1555001;90;20357;-78
2021/03/01 02:29:47;;;;;;;;;;;;;;;4.37;80.51;102728.16;1568120;90;20303;-79
2021/03/01 02:32:34;;;;;;;;;;;;;;;4.40;80.55;102730.86;1566606;90;20332;-78
2021/03/01 02:35:20;;;;;;;;;;;;;;;4.43;80.56;102734.42;1570452;90;20329;-78
2021/03/01 02:38:07;;;;;;;;;;;;;;;4.43;80.48;102729.71;1569565;89;20568;-78
2021/03/01 02:40:51;;;;;;;;;;;;;;;4.43;80.45;102736.11;1577386;89;20325;-78
2021/03/01 02:43:36;;;;;;;;;;;;;;;4.40;80.47;102732.14;1582864;89;20302;-78
2021/03/01 02:46:21;;;;;;;;;;;;;;;4.43;80.56;102734.42;1568928;86;20276;-78
2021/03/01 02:49:08;;;;;;;;;;;;;;;4.43;80.49;102738.67;1574699;89;20285;-78
2021/03/01 02:51:53;;;;;;;;;;;;;;;4.42;80.45;102739.48;1610007;87;20307;-78
2021/03/01 02:54:39;;;;;;;;;;;;;;;4.38;80.45;102732.08;1609940;88;20510;-78
2021/03/01 02:57:25;;;;;;;;;;;;;;;4.37;80.44;102723.92;1609205;85;20304;-78
2021/03/01 03:00:11;;;;;;;;;;;;;;;4.34;80.49;102726.34;1610894;86;20457;-78
2021/03/01 03:02:55;;;;;;;;;;;;;;;4.28;80.43;102728.64;1568653;89;20299;-78
2021/03/01 03:05:42;;;;;;;;;;;;;;;4.27;80.55;102729.45;1615054;87;20206;-78
2021/03/01 03:08:31;;;;;;;;;;;;;;;4.25;80.53;102728.50;1621366;85;20300;-78
2021/03/01 03:11:17;;;;;;;;;;;;;;;4.24;80.58;102726.75;1579692;89;20293;-78
2021/03/01 03:14:02;;;;;;;;;;;;;;;4.23;80.60;102728.44;1605414;88;20295;-78
2021/03/01 03:16:53;;;;;;;;;;;;;;;4.24;80.63;102728.91;1596032;88;20293;-79
2021/03/01 03:19:37;;;;;;;;;;;;;;;4.27;80.65;102726.89;1567748;91;20308;-79
2021/03/01 03:22:22;;;;;;;;;;;;;;;4.27;80.65;102729.05;1566509;88;20621;-79
2021/03/01 03:25:09;;;;;;;;;;;;;;;4.27;80.67;102729.05;1573406;89;20337;-79
2021/03/01 03:27:53;;;;;;;;;;;;;;;4.26;80.59;102726.42;1617534;86;20578;-79
2021/03/01 03:30:38;;;;;;;;;;;;;;;4.23;80.60;102730.12;1572973;89;20342;-79
2021/03/01 03:33:23;;;;;;;;;;;;;;;4.23;80.65;102741.24;1574634;89;20311;-79
2021/03/01 03:36:08;;;;;;;;;;;;;;;4.21;80.59;102736.86;1593211;89;20302;-79
2021/03/01 03:38:59;;;;;;;;;;;;;;;4.19;80.69;102735.92;1614946;85;21016;-79
2021/03/01 03:41:46;;;;;;;;;;;;;;;4.17;80.66;102729.86;1599250;87;20212;-79
2021/03/01 03:44:32;;;;;;;;;;;;;;;4.19;80.71;102734.64;1594550;88;20592;-79
2021/03/01 03:47:18;;;;;;;;;;;;;;;4.19;80.70;102734.64;1577654;88;20335;-79
2021/03/01 03:50:04;;;;;;;;;;;;;;;4.17;80.73;102723.45;1609624;86;20610;-79
2021/03/01 03:52:52;;;;;;;;;;;;;;;4.18;80.77;102735.05;1563602;89;20302;-79
2021/03/01 03:55:39;;;;;;;;;;;;;;;4.17;80.68;102736.25;1583787;88;21378;-79
2021/03/01 03:58:27;;;;;;;;;;;;;;;4.15;80.71;102735.34;1606310;87;20295;-79
2021/03/01 04:01:16;;;;;;;;;;;;;;;4.15;80.79;102734.06;1598689;86;20570;-79
2021/03/01 04:04:07;;;;;;;;;;;;;;;4.17;80.77;102734.98;1595734;86;20410;-79
2021/03/01 04:06:53;;;;;;;;;;;;;;;4.15;80.76;102732.78;1606103;87;20414;-79
2021/03/01 04:09:40;;;;;;;;;;;;;;;4.18;80.82;102727.77;1592244;88;20307;-78
2021/03/01 04:12:25;;;;;;;;;;;;;;;4.18;80.83;102733.77;1592514;88;20295;-77
2021/03/01 04:15:12;;;;;;;;;;;;;;;4.21;80.79;102728.77;1615979;87;20293;-78
2021/03/01 04:17:59;;;;;;;;;;;;;;;4.22;80.79;102730.93;1583487;87;20291;-78
2021/03/01 04:20:44;;;;;;;;;;;;;;;4.23;80.80;102727.56;1596769;86;20572;-78
2021/03/01 04:23:31;;;;;;;;;;;;;;;4.22;80.79;102737.33;1615496;86;20295;-78
2021/03/01 04:26:16;;;;;;;;;;;;;;;4.22;80.77;102738.61;1587986;87;20418;-78
2021/03/01 04:29:02;;;;;;;;;;;;;;;4.22;80.81;102740.77;1610556;87;20293;-78
2021/03/01 04:31:48;;;;;;;;;;;;;;;4.22;80.83;102743.33;1582533;88;20306;-78
2021/03/01 04:34:33;;;;;;;;;;;;;;;4.20;80.74;102749.19;1586867;88;21021;-78
2021/03/01 04:37:18;;;;;;;;;;;;;;;4.18;80.79;102750.81;1582189;88;20305;-78
2021/03/01 04:40:04;;;;;;;;;;;;;;;4.19;80.87;102752.56;1597287;87;20311;-78
2021/03/01 04:42:49;;;;;;;;;;;;;;;4.19;80.84;102757.28;1560330;90;20298;-78
2021/03/01 04:45:34;;;;;;;;;;;;;;;4.17;80.82;102757.61;1562223;90;20329;-78
2021/03/01 04:48:20;;;;;;;;;;;;;;;4.15;80.76;102760.55;1593465;88;20292;-78
2021/03/01 04:51:05;;;;;;;;;;;;;;;4.15;80.83;102769.50;1593854;87;20274;-78
2021/03/01 04:53:50;;;;;;;;;;;;;;;4.15;80.86;102757.98;1555503;90;20275;-78
2021/03/01 04:56:34;;;;;;;;;;;;;;;4.13;80.79;102759.59;1584122;88;20316;-78
2021/03/01 04:59:19;;;;;;;;;;;;;;;4.11;80.83;102761.62;1586009;87;20491;-78
2021/03/01 05:02:04;;;;;;;;;;;;;;;4.09;80.83;102762.83;1568773;87;20293;-78
2021/03/01 05:04:49;;;;;;;;;;;;;;;4.09;80.85;102760.67;1560820;88;20376;-78
2021/03/01 05:07:35;;;;;;;;;;;;;;;4.06;80.79;102755.41;1565812;88;20302;-78
2021/03/01 05:10:20;;;;;;;;;;;;;;;3.99;80.79;102751.70;1583179;87;20320;-77
2021/03/01 05:13:05;;;;;;;;;;;;;;;3.92;80.81;102751.83;1565490;89;20348;-77
2021/03/01 05:15:49;;;;;;;;;;;;;;;3.89;80.79;102752.09;1589948;89;20315;-77
2021/03/01 05:18:34;;;;;;;;;;;;;;;3.84;80.81;102760.84;1573147;87;20307;-77
2021/03/01 05:21:19;;;;;;;;;;;;;;;3.80;80.84;102762.78;1577423;89;20302;-77
2021/03/01 05:24:04;;;;;;;;;;;;;;;3.78;80.93;102766.08;1564562;89;20370;-77
2021/03/01 05:26:49;;;;;;;;;;;;;;;3.77;80.96;102769.03;1569817;89;20332;-77
2021/03/01 05:29:33;;;;;;;;;;;;;;;3.74;80.93;102779.13;1570146;88;20317;-77
2021/03/01 05:32:18;;;;;;;;;;;;;;;3.74;81.01;102772.73;1533478;91;20329;-78
2021/03/01 05:35:04;;;;;;;;;;;;;;;3.71;80.94;102770.44;1574506;89;20335;-78
2021/03/01 05:37:49;;;;;;;;;;;;;;;3.71;81.01;102770.44;1570361;88;20320;-78
2021/03/01 05:40:34;;;;;;;;;;;;;;;3.74;81.05;102771.45;1555123;88;20322;-78
2021/03/01 05:43:19;;;;;;;;;;;;;;;3.76;81.03;102776.23;1556659;90;20265;-78
2021/03/01 05:46:04;;;;;;;;;;;;;;;3.74;81.02;102776.97;1538417;90;20449;-78
2021/03/01 05:48:49;;;;;;;;;;;;;;;3.71;81.01;102782.82;1554682;90;20309;-78
2021/03/01 05:51:35;;;;;;;;;;;;;;;3.72;81.13;102778.18;1568366;89;20335;-78
2021/03/01 05:54:20;;;;;;;;;;;;;;;3.76;81.17;102776.64;1563281;90;20299;-78
2021/03/01 05:57:07;;;;;;;;;;;;;;;3.72;81.02;102774.34;1557999;90;20317;-79
2021/03/01 05:59:52;;;;;;;;;;;;;;;3.73;81.14;102780.34;1550223;90;20331;-77
2021/03/01 06:02:37;;;;;;;;;;;;;;;3.75;81.14;102780.88;1557410;90;20315;-77
2021/03/01 06:05:23;;;;;;;;;;;;;;;3.75;81.12;102785.13;1570432;89;20318;-77
2021/03/01 06:08:10;;;;;;;;;;;;;;;3.76;81.15;102783.91;1566090;89;20704;-77
2021/03/01 06:11:02;;;;;;;;;;;;;;;3.78;81.15;102782.70;1567622;89;20324;-77
2021/03/01 06:13:47;;;;;;;;;;;;;;;3.77;81.12;102783.11;1573960;89;21493;-77
2021/03/01 06:16:33;;;;;;;;;;;;;;;3.77;81.10;102789.91;1559512;90;20409;-77
2021/03/01 06:19:21;;;;;;;;;;;;;;;3.75;81.12;102791.52;1569566;89;20570;-78
2021/03/01 06:22:05;;;;;;;;;;;;;;;3.75;81.18;102791.52;1572477;89;20331;-78
2021/03/01 06:25:06;;;;;;;;;;;;;;;3.79;81.28;102795.98;1543435;91;20604;-78
2021/03/01 06:27:59;;;;;;;;;;;;;;;3.83;81.28;102794.03;1575568;89;20583;-78
2021/03/01 06:30:44;;;;;;;;;;;;;;;3.82;81.24;102795.72;1562306;89;20304;-78
2021/03/01 06:33:30;;;;;;;;;;;;;;;3.86;81.26;102800.57;1562789;90;21094;-78
2021/03/01 06:36:14;;;;;;;;;;;;;;;3.87;81.24;102795.92;1552576;90;20333;-79
2021/03/01 06:38:59;;;;;;;;;;;;;;;3.89;81.21;102801.59;1561824;90;20572;-78
2021/03/01 06:41:44;;;;;;;;;;;;;;;3.90;81.25;102803.75;1576806;88;20345;-77
2021/03/01 06:44:28;;;;;;;;;;;;;;;3.93;81.30;102805.17;1569037;89;20323;-77
2021/03/01 06:47:13;;;;;;;;;;;;;;;3.93;81.23;102803.89;1559137;90;20531;-77
2021/03/01 06:49:58;;;;;;;;;;;;;;;3.94;81.21;102801.41;1571126;88;20410;-77
2021/03/01 06:52:43;;;;;;;;;;;;;;;3.87;81.07;102803.61;1547216;91;20307;-77
2021/03/01 06:55:28;;;;;;;;;;;;;;;3.85;81.24;102807.38;1570524;89;20318;-77
2021/03/01 06:58:18;;;;;;;;;;;;;;;3.88;81.31;102806.23;1562780;90;20277;-77
2021/03/01 07:01:12;;;;;;;;;;;;;;;3.89;81.29;102809.27;1565691;90;20684;-77
2021/03/01 07:04:00;;;;;;;;;;;;;;;3.92;81.32;102814.94;1565844;88;20296;-77
2021/03/01 07:06:45;;;;;;;;;;;;;;;3.90;81.24;102825.09;1557433;90;20711;-75
2021/03/01 07:09:32;;;;;;;;;;;;;;;3.91;81.22;102827.25;1553642;90;20306;-77
2021/03/01 07:12:19;;;;;;;;;;;;;;;3.90;81.25;102830.22;1561270;89;20304;-76
2021/03/01 07:15:12;;;;;;;;;;;;;;;3.90;81.27;102835.34;1539629;91;20317;-77
2021/03/01 07:17:57;;;;;;;;;;;;;;;3.90;81.30;102832.78;1566791;89;20334;-76
2021/03/01 07:20:41;;;;;;;;;;;;;;;3.90;81.31;102831.50;1543511;91;20336;-77
2021/03/01 07:23:26;;;;;;;;;;;;;;;3.95;81.38;102839.39;1568118;89;20219;-76
2021/03/01 07:26:12;;;;;;;;;;;;;;;3.98;81.37;102844.25;1567712;90;20308;-76
2021/03/01 07:29:12;;;;;;;;;;;;;;;3.97;81.34;102846.34;1563332;90;20324;-76
2021/03/01 07:32:01;;;;;;;;;;;;;;;4.00;81.38;102846.88;1563954;89;20412;-76
2021/03/01 07:34:46;;;;;;;;;;;;;;;4.03;81.34;102847.03;1559172;89;20340;-77
2021/03/01 07:37:31;;;;;;;;;;;;;;;4.05;81.35;102851.81;1562712;90;20670;-77
2021/03/01 07:40:17;;;;;;;;;;;;;;;4.06;81.34;102857.81;1562173;90;20339;-77
2021/03/01 07:43:02;;;;;;;;;;;;;;;4.06;81.33;102859.09;1564828;90;20498;-77
2021/03/01 07:45:47;;;;;;;;;;;;;;;4.03;81.26;102857.67;1567636;90;20300;-77
2021/03/01 07:48:40;;;;;;;;;;;;;;;4.02;81.29;102852.95;1564866;90;20340;-77
2021/03/01 07:51:46;;;;;;;;;;;;;;;4.01;81.26;102859.28;1562819;90;20300;-77
2021/03/01 07:55:00;;;;;;;;;;;;;;;3.99;81.31;102858.80;1561601;90;20304;-76
2021/03/01 07:57:46;;;;;;;;;;;;;;;3.99;81.39;102856.25;1564685;90;20312;-77
2021/03/01 08:00:33;;;;;;;;;;;;;;;4.06;81.43;102852.69;1560380;89;20335;-77
2021/03/01 08:03:36;;;;;;;;;;;;;;;4.12;81.45;102852.98;1554994;90;20324;-77
2021/03/01 08:06:21;;;;;;;;;;;;;;;4.12;81.36;102851.30;1576879;89;20312;-77
2021/03/01 08:09:05;;;;;;;;;;;;;;;4.12;81.38;102846.17;1548095;91;20182;-76
2021/03/01 08:11:49;;;;;;;;;;;;;;;4.16;81.40;102849.31;1548241;91;20309;-78
2021/03/01 08:14:53;;;;;;;;;;;;;;;4.17;81.32;102848.91;1549612;89;20201;-77
2021/03/01 08:17:39;;;;;;;;;;;;;;;4.16;81.36;102849.75;1580367;89;20276;-76
2021/03/01 08:20:27;;;;;;;;;;;;;;;4.21;81.44;102847.84;1555154;89;20302;-77
2021/03/01 08:23:14;;;;;;;;;;;;;;;4.26;81.43;102852.77;1571006;89;20300;-77
2021/03/01 08:25:59;;;;;;;;;;;;;;;4.27;81.31;102846.84;1536512;91;20293;-77
2021/03/01 08:28:44;;;;;;;;;;;;;;;4.28;81.34;102848.59;1563088;89;20309;-78
2021/03/01 08:31:31;;;;;;;;;;;;;;;4.26;81.30;102850.61;1567714;90;20266;-77
2021/03/01 08:34:30;;;;;;;;;;;;;;;4.28;81.30;102851.16;1563664;90;20468;-77
2021/03/01 08:37:14;;;;;;;;;;;;;;;4.32;81.38;102851.77;1565275;90;20268;-77
2021/03/01 08:40:01;;;;;;;;;;;;;;;4.36;81.36;102852.78;1566244;90;20310;-77
2021/03/01 08:42:52;;;;;;;;;;;;;;;4.42;81.37;102848.34;1567232;89;20208;-77
2021/03/01 08:45:42;;;;;;;;;;;;;;;4.44;81.25;102847.61;1564073;90;20304;-77
2021/03/01 08:48:27;;;;;;;;;;;;;;;4.44;81.29;102853.13;1566993;90;21433;-77
2021/03/01 08:51:12;;;;;;;;;;;;;;;4.43;81.26;102853.94;1564512;90;20334;-77
2021/03/01 08:53:57;;;;;;;;;;;;;;;4.43;81.23;102856.50;1560438;89;20323;-77
2021/03/01 08:56:41;;;;;;;;;;;;;;;4.43;81.26;102857.78;1565913;90;20296;-75
2021/03/01 08:59:26;;;;;;;;;;;;;;;4.40;81.16;102855.96;1565461;88;20632;-75
2021/03/01 09:02:14;;;;;;;;;;;;;;;4.41;81.21;102861.55;1561692;90;20303;-75
2021/03/01 09:05:07;;;;;;;;;;;;;;;4.43;81.13;102855.22;1569877;90;20441;-76
2021/03/01 09:07:52;;;;;;;;;;;;;;;4.45;81.22;102860.02;1562984;90;20515;-75
2021/03/01 09:10:42;;;;;;;;;;;;;;;4.49;81.32;102866.63;1564270;90;20679;-75
2021/03/01 09:13:28;;;;;;;;;;;;;;;4.55;81.38;102877.14;1567277;90;20310;-76
2021/03/01 09:16:15;;;;;;;;;;;;;;;4.62;81.35;102877.89;1522964;90;20304;-76
2021/03/01 09:19:05;;;;;;;;;;;;;;;4.69;81.33;102881.57;1520708;92;20358;-75
2021/03/01 09:21:53;;;;;;;;;;;;;;;4.73;81.26;102882.18;1518724;92;20333;-76
2021/03/01 09:24:38;;;;;;;;;;;;;;;4.75;81.23;102888.25;1518562;92;20341;-75
2021/03/01 09:27:35;;;;;;;;;;;;;;;4.74;81.08;102888.19;1514186;92;20425;-75
2021/03/01 09:30:22;;;;;;;;;;;;;;;4.73;81.15;102886.03;1520724;91;20321;-75
2021/03/01 09:33:09;;;;;;;;;;;;;;;4.76;81.24;102891.28;1515742;92;20346;-75
2021/03/01 09:35:53;;;;;;;;;;;;;;;4.82;81.14;102894.52;1517314;92;20566;-75
2021/03/01 09:38:40;;;;;;;;;;;;;;;4.81;81.10;102893.65;1518220;92;20309;-75
2021/03/01 09:41:24;;;;;;;;;;;;;;;4.83;81.14;102895.00;1502838;93;20309;-75
2021/03/01 09:44:09;;;;;;;;;;;;;;;4.85;81.09;102896.81;1520507;93;20528;-75
2021/03/01 09:46:56;;;;;;;;;;;;;;;4.86;81.07;102903.70;1518136;91;20307;-75
2021/03/01 09:49:41;;;;;;;;;;;;;;;4.86;81.08;102902.42;1522775;93;20322;-74
2021/03/01 09:52:26;;;;;;;;;;;;;;;4.91;81.10;102900.06;1520467;93;20686;-74
2021/03/01 09:55:11;;;;;;;;;;;;;;;4.91;81.00;102906.47;1518676;93;20329;-75
2021/03/01 09:57:56;;;;;;;;;;;;;;;4.89;80.92;102902.95;1513069;93;21179;-75
2021/03/01 10:00:41;;;;;;;;;;;;;;;4.89;80.92;102907.68;1524790;93;20286;-75
2021/03/01 10:03:29;;;;;;;;;;;;;;;4.86;80.97;102903.70;1520094;93;20281;-76
2021/03/01 10:06:20;;;;;;;;;;;;;;;4.92;81.13;102909.50;1519746;93;20187;-76
2021/03/01 10:09:06;;;;;;;;;;;;;;;4.98;81.04;102907.20;1520429;93;20277;-75
2021/03/01 10:11:54;;;;;;;;;;;;;;;5.02;81.11;102915.50;1521900;93;20299;-75
2021/03/01 10:14:39;;;;;;;;;;;;;;;5.07;81.09;102914.02;1520100;93;20295;-75
2021/03/01 10:17:27;;;;;;;;;;;;;;;5.13;81.12;102914.69;1495806;94;20290;-75
2021/03/01 10:20:15;;;;;;;;;;;;;;;5.19;81.08;102917.52;1516519;93;20548;-75
2021/03/01 10:23:06;;;;;;;;;;;;;;;5.21;81.04;102927.00;1520042;93;20278;-75
2021/03/01 10:25:55;;;;;;;;;;;;;;;5.23;80.90;102926.66;1531408;91;20285;-75
2021/03/01 10:28:39;;;;;;;;;;;;;;;5.22;80.92;102926.59;1522092;93;20292;-76
2021/03/01 10:31:34;;;;;;;;;;;;;;;5.25;80.96;102928.01;1518169;93;20273;-75
2021/03/01 10:34:22;;;;;;;;;;;;;;;5.27;80.94;102931.52;1519530;93;20305;-75
2021/03/01 10:37:12;;;;;;;;;;;;;;;5.23;80.65;102930.51;1513599;93;20304;-75
2021/03/01 10:39:57;;;;;;;;;;;;;;;5.19;80.89;102925.21;1521318;91;20343;-75
2021/03/01 10:42:41;;;;;;;;;;;;;;;5.25;80.96;102925.44;1521847;92;20304;-75
2021/03/01 10:45:29;;;;;;;;;;;;;;;5.29;80.99;102927.33;1522625;92;20304;-75
2021/03/01 10:48:14;;;;;;;;;;;;;;;5.31;80.92;102924.42;1521734;91;20315;-76
2021/03/01 10:50:59;;;;;;;;;;;;;;;5.32;80.87;102927.05;1521893;92;20319;-76
2021/03/01 10:53:43;;;;;;;;;;;;;;;5.33;80.88;102924.96;1525648;92;21336;-76
2021/03/01 10:56:28;;;;;;;;;;;;;;;5.36;80.83;102922.93;1520125;92;20600;-76
2021/03/01 10:59:13;;;;;;;;;;;;;;;5.36;80.80;102913.95;1504278;92;20679;-76
2021/03/01 11:01:57;;;;;;;;;;;;;;;5.40;80.88;102913.27;1523962;92;20304;-76
2021/03/01 11:04:42;;;;;;;;;;;;;;;5.45;80.91;102910.89;1526829;91;20313;-77
2021/03/01 11:07:28;;;;;;;;;;;;;;;5.50;80.92;102910.27;1528603;92;20317;-76
2021/03/01 11:10:13;;;;;;;;;;;;;;;5.52;80.83;102907.37;1524460;91;20333;-76
2021/03/01 11:12:58;;;;;;;;;;;;;;;5.56;80.81;102914.78;1522349;92;20350;-76
2021/03/01 11:15:43;;;;;;;;;;;;;;;5.58;80.71;102909.31;1522579;92;20330;-77
2021/03/01 11:18:27;;;;;;;;;;;;;;;5.60;80.78;102906.41;1522282;92;20308;-76
2021/03/01 11:21:12;;;;;;;;;;;;;;;5.64;80.80;102900.58;1525511;92;20685;-76
2021/03/01 11:23:57;;;;;;;;;;;;;;;5.69;80.81;102905.49;1524738;91;20397;-76
2021/03/01 11:26:42;;;;;;;;;;;;;;;5.70;80.73;102899.55;1495013;94;20305;-76
2021/03/01 11:29:26;;;;;;;;;;;;;;;5.74;80.73;102901.80;1507197;93;20708;-76
2021/03/01 11:32:11;;;;;;;;;;;;;;;5.79;80.79;102898.61;1495719;92;20308;-76
2021/03/01 11:34:56;;;;;;;;;;;;;;;5.81;80.64;102894.41;1503232;93;20616;-76
2021/03/01 11:37:40;;;;;;;;;;;;;;;5.86;80.72;102889.45;1505619;92;20802;-76
2021/03/01 11:40:25;;;;;;;;;;;;;;;5.87;80.61;102887.36;1502979;92;20297;-76
2021/03/01 11:43:10;;;;;;;;;;;;;;;5.91;80.67;102890.55;1517600;92;20306;-76
2021/03/01 11:45:54;;;;;;;;;;;;;;;5.94;80.60;102879.99;1524214;93;20326;-77
2021/03/01 11:48:39;;;;;;;;;;;;;;;6.01;80.66;102884.08;1511560;93;20306;-76
2021/03/01 11:51:24;;;;;;;;;;;;;;;6.05;80.57;102882.98;1518970;93;20346;-76
2021/03/01 11:54:09;;;;;;;;;;;;;;;6.09;80.54;102883.56;1492062;94;20316;-76
2021/03/01 11:56:53;;;;;;;;;;;;;;;6.15;80.58;102887.66;1517764;93;20623;-76
2021/03/01 11:59:38;;;;;;;;;;;;;;;6.18;80.47;102885.61;1522214;93;20321;-76
2021/03/01 12:02:23;;;;;;;;;;;;;;;6.19;80.46;102881.82;1518594;93;20411;-77
2021/03/01 12:05:08;;;;;;;;;;;;;;;6.22;80.39;102888.77;1484532;94;20722;-77
2021/03/01 12:07:53;;;;;;;;;;;;;;;6.20;80.30;102881.41;1520408;93;20292;-77
2021/03/01 12:10:37;;;;;;;;;;;;;;;6.17;80.38;102884.73;1493619;94;20293;-76
2021/03/01 12:13:22;;;;;;;;;;;;;;;6.23;80.53;102882.41;1523311;93;20284;-77
2021/03/01 12:16:06;;;;;;;;;;;;;;;6.30;80.51;102882.20;1515492;93;20306;-77
2021/03/01 12:18:51;;;;;;;;;;;;;;;6.38;80.52;102880.80;1534010;93;20321;-77
2021/03/01 12:21:35;;;;;;;;;;;;;;;6.41;80.43;102877.47;1522708;93;20272;-77
2021/03/01 12:24:19;;;;;;;;;;;;;;;6.41;80.31;102871.04;1518315;93;20308;-76
2021/03/01 12:27:04;;;;;;;;;;;;;;;6.45;80.43;102873.78;1510972;93;20316;-77
2021/03/01 12:29:48;;;;;;;;;;;;;;;6.49;80.36;102871.79;1525282;93;20501;-76
2021/03/01 12:32:33;;;;;;;;;;;;;;;6.53;80.37;102868.52;1516953;93;20273;-77
2021/03/01 12:35:17;;;;;;;;;;;;;;;6.56;80.32;102862.20;1498240;94;20240;-76
2021/03/01 12:38:02;;;;;;;;;;;;;;;6.55;80.27;102865.59;1505974;94;20490;-76
2021/03/01 12:40:47;;;;;;;;;;;;;;;6.53;80.27;102866.35;1497464;93;20326;-77
2021/03/01 12:43:31;;;;;;;;;;;;;;;6.52;80.27;102861.63;1505857;93;20309;-77
2021/03/01 12:46:16;;;;;;;;;;;;;;;6.53;80.22;102866.35;1528505;92;20352;-77
2021/03/01 12:49:01;;;;;;;;;;;;;;;6.53;80.27;102863.78;1507883;93;20352;-77
2021/03/01 12:51:45;;;;;;;;;;;;;;;6.55;80.33;102868.57;1527493;93;20320;-78
2021/03/01 12:54:30;;;;;;;;;;;;;;;6.59;80.31;102868.73;1507402;93;20559;-78
2021/03/01 12:57:15;;;;;;;;;;;;;;;6.59;80.25;102861.44;1506331;93;20305;-78
2021/03/01 12:59:59;;;;;;;;;;;;;;;6.61;80.25;102867.10;1505081;93;20342;-78
2021/03/01 13:02:44;;;;;;;;;;;;;;;6.62;80.22;102861.14;1517607;92;20324;-77
2021/03/01 13:05:28;;;;;;;;;;;;;;;6.60;80.18;102858.92;1530682;92;20327;-77
2021/03/01 13:08:13;;;;;;;;;;;;;;;6.57;80.13;102856.66;1508037;93;20309;-77
2021/03/01 13:10:58;;;;;;;;;;;;;;;6.55;80.12;102856.59;1506311;92;20310;-77
2021/03/01 13:13:42;;;;;;;;;;;;;;;6.57;80.19;102853.67;1509729;93;20681;-77
2021/03/01 13:16:28;;;;;;;;;;;;;;;6.58;80.21;102849.00;1507904;93;20325;-77
2021/03/01 13:19:12;;;;;;;;;;;;;;;6.63;80.20;102852.61;1508268;93;20330;-77
2021/03/01 13:21:57;;;;;;;;;;;;;;;6.64;80.15;102841.51;1506294;93;20343;-77
2021/03/01 13:24:42;;;;;;;;;;;;;;;6.66;80.12;102839.40;1534745;92;20318;-76
2021/03/01 13:27:26;;;;;;;;;;;;;;;6.61;80.05;102841.39;1508914;93;20322;-78
2021/03/01 13:30:12;;;;;;;;;;;;;;;6.60;80.03;102835.79;1512086;93;20309;-77
2021/03/01 13:32:56;;;;;;;;;;;;;;;6.57;80.05;102840.81;1533665;92;20343;-77
2021/03/01 13:35:41;;;;;;;;;;;;;;;6.56;80.04;102826.22;1505234;93;20350;-77
2021/03/01 13:38:25;;;;;;;;;;;;;;;6.58;80.16;102832.28;1507262;93;20543;-77
2021/03/01 13:41:10;;;;;;;;;;;;;;;6.59;80.00;102839.59;1505529;93;20330;-77
2021/03/01 13:43:55;;;;;;;;;;;;;;;6.57;80.10;102833.52;1541383;92;20671;-77
2021/03/01 13:46:39;;;;;;;;;;;;;;;6.54;79.91;102836.85;1501091;92;20313;-76
2021/03/01 13:49:24;;;;;;;;;;;;;;;6.52;79.98;102830.78;1499372;93;20301;-76
2021/03/01 13:52:09;;;;;;;;;;;;;;;6.47;79.94;102827.58;1492046;93;20414;-76
2021/03/01 13:54:53;;;;;;;;;;;;;;;6.46;80.03;102826.70;1509583;93;20298;-77
2021/03/01 13:57:38;;;;;;;;;;;;;;;6.48;80.01;102826.76;1497834;93;20600;-76
2021/03/01 14:00:23;;;;;;;;;;;;;;;6.44;79.91;102824.48;1510202;93;20311;-77
2021/03/01 14:03:08;;;;;;;;;;;;;;;6.40;79.94;102827.77;1510218;93;20605;-77
2021/03/01 14:05:53;;;;;;;;;;;;;;;6.39;79.97;102828.58;1509030;93;20593;-76
2021/03/01 14:08:37;;;;;;;;;;;;;;;6.35;79.89;102828.00;1502191;92;20318;-79
2021/03/01 14:11:22;;;;;;;;;;;;;;;6.31;79.97;102825.73;1501614;92;20330;-76
2021/03/01 14:14:07;;;;;;;;;;;;;;;6.29;79.98;102827.37;1512506;93;20309;-77
2021/03/01 14:16:51;;;;;;;;;;;;;;;6.30;79.95;102825.67;1532685;92;20737;-77
2021/03/01 14:19:36;;;;;;;;;;;;;;;6.31;79.98;102819.30;1506448;93;21100;-76
2021/03/01 14:22:20;;;;;;;;;;;;;;;6.30;79.94;102813.70;1536597;92;20453;-76
2021/03/01 14:25:07;;;;;;;;;;;;;;;6.27;79.83;102810.14;1506673;93;20323;-75